sensor_id;sensor_type;location;lat;lon;timestamp;P1;durP1;ratioP1;P2;durP2;ratioP2
47930;SDS011;33697;51.520;9.950;2022-11-11T00:01:30;18.05;;;4.47;;
47930;SDS011;33697;51.520;9.950;2022-11-11T00:03:56;13.50;;;6.80;;
47930;SDS011;33697;51.520;9.950;2022-11-11T00:06:22;15.95;;;4.55;;
47930;SDS011;33697;51.520;9.950;2022-11-11T00:08:49;22.63;;;5.70;;
47930;SDS011;33697;51.520;9.950;2022-11-11T00:11:15;11.30;;;4.85;;
47930;SDS011;33697;51.520;9.950;2022-11-11T00:13:42;14.10;;;4.13;;
47930;SDS011;33697;51.520;9.950;2022-11-11T00:16:10;14.18;;;4.80;;
47930;SDS011;33697;51.520;9.950;2022-11-11T00:18:37;21.90;;;7.07;;
47930;SDS011;33697;51.520;9.950;2022-11-11T00:21:23;22.33;;;5.70;;
47930;SDS011;33697;51.520;9.950;2022-11-11T00:23:52;13.60;;;5.10;;
47930;SDS011;33697;51.520;9.950;2022-11-11T00:26:37;10.55;;;4.60;;
47930;SDS011;33697;51.520;9.950;2022-11-11T00:29:05;14.43;;;6.10;;
47930;SDS011;33697;51.520;9.950;2022-11-11T00:31:33;16.38;;;4.47;;
47930;SDS011;33697;51.520;9.950;2022-11-11T00:34:00;10.70;;;4.40;;
47930;SDS011;33697;51.520;9.950;2022-11-11T00:36:27;13.55;;;4.00;;
47930;SDS011;33697;51.520;9.950;2022-11-11T00:38:53;13.00;;;4.80;;
47930;SDS011;33697;51.520;9.950;2022-11-11T00:41:22;20.65;;;5.38;;
47930;SDS011;33697;51.520;9.950;2022-11-11T00:43:48;13.10;;;5.15;;
47930;SDS011;33697;51.520;9.950;2022-11-11T00:46:15;17.35;;;5.78;;
47930;SDS011;33697;51.520;9.950;2022-11-11T00:49:00;9.73;;;5.03;;
47930;SDS011;33697;51.520;9.950;2022-11-11T00:51:45;10.95;;;4.60;;
47930;SDS011;33697;51.520;9.950;2022-11-11T00:54:12;13.23;;;5.53;;
47930;SDS011;33697;51.520;9.950;2022-11-11T00:56:38;11.38;;;5.03;;
47930;SDS011;33697;51.520;9.950;2022-11-11T00:59:05;15.80;;;4.70;;
47930;SDS011;33697;51.520;9.950;2022-11-11T01:01:33;16.20;;;4.95;;
47930;SDS011;33697;51.520;9.950;2022-11-11T01:04:00;20.35;;;5.78;;
47930;SDS011;33697;51.520;9.950;2022-11-11T01:06:27;13.73;;;6.45;;
47930;SDS011;33697;51.520;9.950;2022-11-11T01:08:53;14.63;;;4.97;;
47930;SDS011;33697;51.520;9.950;2022-11-11T01:11:20;20.80;;;5.30;;
47930;SDS011;33697;51.520;9.950;2022-11-11T01:13:47;21.48;;;6.07;;
47930;SDS011;33697;51.520;9.950;2022-11-11T01:16:14;14.27;;;4.85;;
47930;SDS011;33697;51.520;9.950;2022-11-11T01:18:41;15.27;;;6.45;;
47930;SDS011;33697;51.520;9.950;2022-11-11T01:21:10;14.93;;;5.78;;
47930;SDS011;33697;51.520;9.950;2022-11-11T01:23:37;15.25;;;5.30;;
47930;SDS011;33697;51.520;9.950;2022-11-11T01:26:12;11.18;;;5.05;;
47930;SDS011;33697;51.520;9.950;2022-11-11T01:28:39;13.40;;;5.22;;
47930;SDS011;33697;51.520;9.950;2022-11-11T01:31:06;12.70;;;5.35;;
47930;SDS011;33697;51.520;9.950;2022-11-11T01:33:33;18.38;;;6.00;;
47930;SDS011;33697;51.520;9.950;2022-11-11T01:36:04;12.02;;;5.43;;
47930;SDS011;33697;51.520;9.950;2022-11-11T01:38:30;10.95;;;5.88;;
47930;SDS011;33697;51.520;9.950;2022-11-11T01:40:57;16.92;;;5.40;;
47930;SDS011;33697;51.520;9.950;2022-11-11T01:43:23;18.00;;;7.05;;
47930;SDS011;33697;51.520;9.950;2022-11-11T01:46:00;12.00;;;6.40;;
47930;SDS011;33697;51.520;9.950;2022-11-11T01:48:30;13.75;;;5.63;;
47930;SDS011;33697;51.520;9.950;2022-11-11T01:51:29;11.70;;;5.68;;
47930;SDS011;33697;51.520;9.950;2022-11-11T01:53:59;25.83;;;8.02;;
47930;SDS011;33697;51.520;9.950;2022-11-11T01:56:26;10.93;;;5.50;;
47930;SDS011;33697;51.520;9.950;2022-11-11T01:58:53;16.30;;;6.05;;
47930;SDS011;33697;51.520;9.950;2022-11-11T02:01:21;14.43;;;7.03;;
47930;SDS011;33697;51.520;9.950;2022-11-11T02:03:48;18.23;;;7.30;;
47930;SDS011;33697;51.520;9.950;2022-11-11T02:06:33;14.75;;;6.70;;
47930;SDS011;33697;51.520;9.950;2022-11-11T02:09:00;26.48;;;7.25;;
47930;SDS011;33697;51.520;9.950;2022-11-11T02:11:27;16.55;;;6.68;;
47930;SDS011;33697;51.520;9.950;2022-11-11T02:14:12;20.35;;;7.03;;
47930;SDS011;33697;51.520;9.950;2022-11-11T02:16:58;16.33;;;6.60;;
47930;SDS011;33697;51.520;9.950;2022-11-11T02:19:31;22.13;;;7.97;;
47930;SDS011;33697;51.520;9.950;2022-11-11T02:22:01;14.00;;;8.52;;
47930;SDS011;33697;51.520;9.950;2022-11-11T02:24:27;23.85;;;7.43;;
47930;SDS011;33697;51.520;9.950;2022-11-11T02:26:55;16.67;;;7.18;;
47930;SDS011;33697;51.520;9.950;2022-11-11T02:29:24;19.70;;;9.48;;
47930;SDS011;33697;51.520;9.950;2022-11-11T02:31:51;17.15;;;9.02;;
47930;SDS011;33697;51.520;9.950;2022-11-11T02:34:17;28.75;;;9.77;;
47930;SDS011;33697;51.520;9.950;2022-11-11T02:36:43;20.10;;;8.55;;
47930;SDS011;33697;51.520;9.950;2022-11-11T02:39:10;21.02;;;8.32;;
47930;SDS011;33697;51.520;9.950;2022-11-11T02:41:36;15.23;;;6.90;;
47930;SDS011;33697;51.520;9.950;2022-11-11T02:44:22;14.30;;;7.20;;
47930;SDS011;33697;51.520;9.950;2022-11-11T02:46:48;13.68;;;7.18;;
47930;SDS011;33697;51.520;9.950;2022-11-11T02:49:15;18.13;;;9.60;;
47930;SDS011;33697;51.520;9.950;2022-11-11T02:51:41;14.27;;;6.80;;
47930;SDS011;33697;51.520;9.950;2022-11-11T02:54:08;21.50;;;9.00;;
47930;SDS011;33697;51.520;9.950;2022-11-11T02:56:34;20.83;;;7.95;;
47930;SDS011;33697;51.520;9.950;2022-11-11T02:59:19;24.67;;;8.02;;
47930;SDS011;33697;51.520;9.950;2022-11-11T03:01:47;18.17;;;7.03;;
47930;SDS011;33697;51.520;9.950;2022-11-11T03:04:14;24.17;;;9.23;;
47930;SDS011;33697;51.520;9.950;2022-11-11T03:06:40;16.88;;;7.70;;
47930;SDS011;33697;51.520;9.950;2022-11-11T03:09:06;17.58;;;7.25;;
47930;SDS011;33697;51.520;9.950;2022-11-11T03:11:33;22.02;;;8.57;;
47930;SDS011;33697;51.520;9.950;2022-11-11T03:16:30;27.85;;;10.05;;
47930;SDS011;33697;51.520;9.950;2022-11-11T03:19:15;20.45;;;7.75;;
47930;SDS011;33697;51.520;9.950;2022-11-11T03:21:41;22.75;;;9.07;;
47930;SDS011;33697;51.520;9.950;2022-11-11T03:24:28;23.20;;;10.00;;
47930;SDS011;33697;51.520;9.950;2022-11-11T03:27:15;22.48;;;8.38;;
47930;SDS011;33697;51.520;9.950;2022-11-11T03:29:41;21.92;;;8.57;;
47930;SDS011;33697;51.520;9.950;2022-11-11T03:32:08;23.88;;;8.15;;
47930;SDS011;33697;51.520;9.950;2022-11-11T03:34:35;23.95;;;8.95;;
47930;SDS011;33697;51.520;9.950;2022-11-11T03:37:01;23.10;;;8.02;;
47930;SDS011;33697;51.520;9.950;2022-11-11T03:39:47;24.60;;;7.35;;
47930;SDS011;33697;51.520;9.950;2022-11-11T03:42:13;15.80;;;8.43;;
47930;SDS011;33697;51.520;9.950;2022-11-11T03:44:39;22.75;;;8.27;;
47930;SDS011;33697;51.520;9.950;2022-11-11T03:47:06;18.40;;;8.65;;
47930;SDS011;33697;51.520;9.950;2022-11-11T03:49:32;29.25;;;6.93;;
47930;SDS011;33697;51.520;9.950;2022-11-11T03:51:58;27.80;;;8.10;;
47930;SDS011;33697;51.520;9.950;2022-11-11T03:54:25;18.67;;;8.88;;
47930;SDS011;33697;51.520;9.950;2022-11-11T03:56:51;19.98;;;8.07;;
47930;SDS011;33697;51.520;9.950;2022-11-11T03:59:17;17.13;;;6.10;;
47930;SDS011;33697;51.520;9.950;2022-11-11T04:01:44;18.73;;;6.40;;
47930;SDS011;33697;51.520;9.950;2022-11-11T04:04:29;18.92;;;7.90;;
47930;SDS011;33697;51.520;9.950;2022-11-11T04:07:14;14.80;;;7.25;;
47930;SDS011;33697;51.520;9.950;2022-11-11T04:09:59;19.83;;;7.20;;
47930;SDS011;33697;51.520;9.950;2022-11-11T04:12:43;23.27;;;7.80;;
47930;SDS011;33697;51.520;9.950;2022-11-11T04:15:28;22.88;;;8.07;;
47930;SDS011;33697;51.520;9.950;2022-11-11T04:18:13;24.17;;;10.00;;
47930;SDS011;33697;51.520;9.950;2022-11-11T04:20:41;28.33;;;8.93;;
47930;SDS011;33697;51.520;9.950;2022-11-11T04:23:26;16.77;;;8.98;;
47930;SDS011;33697;51.520;9.950;2022-11-11T04:25:52;15.27;;;6.85;;
47930;SDS011;33697;51.520;9.950;2022-11-11T04:28:20;25.08;;;8.77;;
47930;SDS011;33697;51.520;9.950;2022-11-11T04:31:05;19.58;;;7.13;;
47930;SDS011;33697;51.520;9.950;2022-11-11T04:33:31;20.15;;;7.72;;
47930;SDS011;33697;51.520;9.950;2022-11-11T04:35:58;19.15;;;9.70;;
47930;SDS011;33697;51.520;9.950;2022-11-11T04:38:24;27.90;;;8.50;;
47930;SDS011;33697;51.520;9.950;2022-11-11T04:41:09;24.40;;;8.00;;
47930;SDS011;33697;51.520;9.950;2022-11-11T04:43:36;19.60;;;7.53;;
47930;SDS011;33697;51.520;9.950;2022-11-11T04:46:22;16.35;;;7.05;;
47930;SDS011;33697;51.520;9.950;2022-11-11T04:48:48;17.80;;;7.57;;
47930;SDS011;33697;51.520;9.950;2022-11-11T04:51:15;14.43;;;7.85;;
47930;SDS011;33697;51.520;9.950;2022-11-11T04:53:41;14.23;;;8.73;;
47930;SDS011;33697;51.520;9.950;2022-11-11T04:56:07;17.25;;;7.97;;
47930;SDS011;33697;51.520;9.950;2022-11-11T04:58:52;20.83;;;7.30;;
47930;SDS011;33697;51.520;9.950;2022-11-11T05:01:38;14.80;;;6.55;;
47930;SDS011;33697;51.520;9.950;2022-11-11T05:04:23;20.88;;;7.82;;
47930;SDS011;33697;51.520;9.950;2022-11-11T05:06:49;23.63;;;8.57;;
47930;SDS011;33697;51.520;9.950;2022-11-11T05:09:34;19.60;;;8.45;;
47930;SDS011;33697;51.520;9.950;2022-11-11T05:12:01;25.80;;;7.90;;
47930;SDS011;33697;51.520;9.950;2022-11-11T05:14:27;21.23;;;7.30;;
47930;SDS011;33697;51.520;9.950;2022-11-11T05:17:12;20.20;;;8.43;;
47930;SDS011;33697;51.520;9.950;2022-11-11T05:19:56;19.42;;;7.32;;
47930;SDS011;33697;51.520;9.950;2022-11-11T05:22:42;21.85;;;8.98;;
47930;SDS011;33697;51.520;9.950;2022-11-11T05:25:09;17.63;;;7.40;;
47930;SDS011;33697;51.520;9.950;2022-11-11T05:27:51;20.05;;;7.45;;
47930;SDS011;33697;51.520;9.950;2022-11-11T05:30:18;22.88;;;8.02;;
47930;SDS011;33697;51.520;9.950;2022-11-11T05:32:45;21.02;;;8.40;;
47930;SDS011;33697;51.520;9.950;2022-11-11T05:35:12;23.95;;;9.07;;
47930;SDS011;33697;51.520;9.950;2022-11-11T05:37:38;26.13;;;7.90;;
47930;SDS011;33697;51.520;9.950;2022-11-11T05:40:05;27.40;;;8.23;;
47930;SDS011;33697;51.520;9.950;2022-11-11T05:42:32;17.40;;;8.20;;
47930;SDS011;33697;51.520;9.950;2022-11-11T05:44:58;18.92;;;7.88;;
47930;SDS011;33697;51.520;9.950;2022-11-11T05:47:25;21.08;;;8.88;;
47930;SDS011;33697;51.520;9.950;2022-11-11T05:49:51;20.17;;;8.85;;
47930;SDS011;33697;51.520;9.950;2022-11-11T05:52:17;18.58;;;7.60;;
47930;SDS011;33697;51.520;9.950;2022-11-11T05:54:44;13.73;;;7.57;;
47930;SDS011;33697;51.520;9.950;2022-11-11T05:57:10;25.23;;;10.10;;
47930;SDS011;33697;51.520;9.950;2022-11-11T05:59:37;18.08;;;8.82;;
47930;SDS011;33697;51.520;9.950;2022-11-11T06:02:03;18.55;;;9.20;;
47930;SDS011;33697;51.520;9.950;2022-11-11T06:04:29;23.35;;;9.13;;
47930;SDS011;33697;51.520;9.950;2022-11-11T06:06:56;18.73;;;7.88;;
47930;SDS011;33697;51.520;9.950;2022-11-11T06:09:23;25.60;;;8.55;;
47930;SDS011;33697;51.520;9.950;2022-11-11T06:11:49;21.40;;;7.78;;
47930;SDS011;33697;51.520;9.950;2022-11-11T06:14:15;24.55;;;9.52;;
47930;SDS011;33697;51.520;9.950;2022-11-11T06:16:42;19.33;;;7.78;;
47930;SDS011;33697;51.520;9.950;2022-11-11T06:19:08;16.25;;;8.55;;
47930;SDS011;33697;51.520;9.950;2022-11-11T06:21:34;19.02;;;8.48;;
47930;SDS011;33697;51.520;9.950;2022-11-11T06:24:21;12.93;;;7.60;;
47930;SDS011;33697;51.520;9.950;2022-11-11T06:26:51;14.35;;;8.05;;
47930;SDS011;33697;51.520;9.950;2022-11-11T06:29:18;20.13;;;8.55;;
47930;SDS011;33697;51.520;9.950;2022-11-11T06:31:44;15.73;;;7.88;;
47930;SDS011;33697;51.520;9.950;2022-11-11T06:34:10;22.30;;;7.68;;
47930;SDS011;33697;51.520;9.950;2022-11-11T06:36:37;20.30;;;7.68;;
47930;SDS011;33697;51.520;9.950;2022-11-11T06:39:03;16.50;;;6.88;;
47930;SDS011;33697;51.520;9.950;2022-11-11T06:41:30;18.08;;;7.18;;
47930;SDS011;33697;51.520;9.950;2022-11-11T06:43:56;15.93;;;8.27;;
47930;SDS011;33697;51.520;9.950;2022-11-11T06:46:23;17.95;;;7.13;;
47930;SDS011;33697;51.520;9.950;2022-11-11T06:48:49;15.98;;;7.30;;
47930;SDS011;33697;51.520;9.950;2022-11-11T06:51:16;16.63;;;7.65;;
47930;SDS011;33697;51.520;9.950;2022-11-11T06:53:43;23.90;;;8.20;;
47930;SDS011;33697;51.520;9.950;2022-11-11T06:56:09;10.48;;;7.78;;
47930;SDS011;33697;51.520;9.950;2022-11-11T06:58:37;15.32;;;7.15;;
47930;SDS011;33697;51.520;9.950;2022-11-11T07:01:04;11.75;;;7.30;;
47930;SDS011;33697;51.520;9.950;2022-11-11T07:03:31;13.43;;;7.05;;
47930;SDS011;33697;51.520;9.950;2022-11-11T07:05:59;16.48;;;6.50;;
47930;SDS011;33697;51.520;9.950;2022-11-11T07:08:25;12.13;;;5.75;;
47930;SDS011;33697;51.520;9.950;2022-11-11T07:10:52;19.02;;;6.18;;
47930;SDS011;33697;51.520;9.950;2022-11-11T07:13:19;11.60;;;6.18;;
47930;SDS011;33697;51.520;9.950;2022-11-11T07:15:45;12.07;;;5.80;;
47930;SDS011;33697;51.520;9.950;2022-11-11T07:18:11;15.38;;;6.25;;
47930;SDS011;33697;51.520;9.950;2022-11-11T07:20:38;10.40;;;5.13;;
47930;SDS011;33697;51.520;9.950;2022-11-11T07:23:04;13.63;;;6.65;;
47930;SDS011;33697;51.520;9.950;2022-11-11T07:25:31;9.52;;;4.85;;
47930;SDS011;33697;51.520;9.950;2022-11-11T07:27:57;9.52;;;6.00;;
47930;SDS011;33697;51.520;9.950;2022-11-11T07:30:25;13.48;;;6.82;;
47930;SDS011;33697;51.520;9.950;2022-11-11T07:32:52;9.95;;;6.30;;
47930;SDS011;33697;51.520;9.950;2022-11-11T07:35:19;9.80;;;5.15;;
47930;SDS011;33697;51.520;9.950;2022-11-11T07:37:46;14.32;;;5.28;;
47930;SDS011;33697;51.520;9.950;2022-11-11T07:40:13;10.48;;;5.28;;
47930;SDS011;33697;51.520;9.950;2022-11-11T07:42:40;10.05;;;5.60;;
47930;SDS011;33697;51.520;9.950;2022-11-11T07:45:07;9.02;;;5.28;;
47930;SDS011;33697;51.520;9.950;2022-11-11T07:47:33;13.68;;;5.75;;
47930;SDS011;33697;51.520;9.950;2022-11-11T07:50:01;14.48;;;6.63;;
47930;SDS011;33697;51.520;9.950;2022-11-11T07:52:33;10.30;;;5.30;;
47930;SDS011;33697;51.520;9.950;2022-11-11T07:54:59;13.27;;;5.13;;
47930;SDS011;33697;51.520;9.950;2022-11-11T07:57:26;17.63;;;6.13;;
47930;SDS011;33697;51.520;9.950;2022-11-11T07:59:52;13.30;;;5.35;;
47930;SDS011;33697;51.520;9.950;2022-11-11T08:02:18;8.20;;;4.78;;
47930;SDS011;33697;51.520;9.950;2022-11-11T08:04:45;12.95;;;6.32;;
47930;SDS011;33697;51.520;9.950;2022-11-11T08:07:16;18.60;;;6.25;;
47930;SDS011;33697;51.520;9.950;2022-11-11T08:09:48;14.70;;;5.75;;
47930;SDS011;33697;51.520;9.950;2022-11-11T08:12:14;8.43;;;4.00;;
47930;SDS011;33697;51.520;9.950;2022-11-11T08:14:59;9.50;;;4.85;;
47930;SDS011;33697;51.520;9.950;2022-11-11T08:17:35;8.65;;;4.82;;
47930;SDS011;33697;51.520;9.950;2022-11-11T08:20:01;12.63;;;4.93;;
47930;SDS011;33697;51.520;9.950;2022-11-11T08:22:28;9.68;;;5.20;;
47930;SDS011;33697;51.520;9.950;2022-11-11T08:24:54;13.23;;;3.65;;
47930;SDS011;33697;51.520;9.950;2022-11-11T08:27:28;7.50;;;3.90;;
47930;SDS011;33697;51.520;9.950;2022-11-11T08:29:55;10.27;;;4.70;;
47930;SDS011;33697;51.520;9.950;2022-11-11T08:32:21;16.45;;;7.32;;
47930;SDS011;33697;51.520;9.950;2022-11-11T08:34:47;25.85;;;11.27;;
47930;SDS011;33697;51.520;9.950;2022-11-11T08:37:15;17.63;;;9.63;;
47930;SDS011;33697;51.520;9.950;2022-11-11T08:39:41;15.07;;;7.30;;
47930;SDS011;33697;51.520;9.950;2022-11-11T08:42:07;13.27;;;5.60;;
47930;SDS011;33697;51.520;9.950;2022-11-11T08:44:34;8.07;;;3.90;;
47930;SDS011;33697;51.520;9.950;2022-11-11T08:47:00;7.28;;;3.72;;
47930;SDS011;33697;51.520;9.950;2022-11-11T08:49:26;9.15;;;3.85;;
47930;SDS011;33697;51.520;9.950;2022-11-11T08:51:52;5.63;;;3.38;;
47930;SDS011;33697;51.520;9.950;2022-11-11T08:54:19;8.00;;;4.03;;
47930;SDS011;33697;51.520;9.950;2022-11-11T08:56:45;7.38;;;2.97;;
47930;SDS011;33697;51.520;9.950;2022-11-11T08:59:11;6.28;;;2.90;;
47930;SDS011;33697;51.520;9.950;2022-11-11T09:01:38;9.43;;;3.90;;
47930;SDS011;33697;51.520;9.950;2022-11-11T09:04:04;7.97;;;2.92;;
47930;SDS011;33697;51.520;9.950;2022-11-11T09:06:51;6.90;;;2.65;;
47930;SDS011;33697;51.520;9.950;2022-11-11T09:09:17;8.07;;;3.13;;
47930;SDS011;33697;51.520;9.950;2022-11-11T09:11:43;10.15;;;3.55;;
47930;SDS011;33697;51.520;9.950;2022-11-11T09:14:10;9.32;;;3.45;;
47930;SDS011;33697;51.520;9.950;2022-11-11T09:16:36;9.70;;;2.85;;
47930;SDS011;33697;51.520;9.950;2022-11-11T09:19:02;7.75;;;3.05;;
47930;SDS011;33697;51.520;9.950;2022-11-11T09:21:29;9.05;;;3.45;;
47930;SDS011;33697;51.520;9.950;2022-11-11T09:23:55;9.60;;;2.35;;
47930;SDS011;33697;51.520;9.950;2022-11-11T09:26:21;5.32;;;2.75;;
47930;SDS011;33697;51.520;9.950;2022-11-11T09:28:48;12.98;;;4.15;;
47930;SDS011;33697;51.520;9.950;2022-11-11T09:31:14;11.68;;;3.60;;
47930;SDS011;33697;51.520;9.950;2022-11-11T09:34:00;11.18;;;4.22;;
47930;SDS011;33697;51.520;9.950;2022-11-11T09:36:27;11.63;;;3.25;;
47930;SDS011;33697;51.520;9.950;2022-11-11T09:38:54;8.95;;;4.55;;
47930;SDS011;33697;51.520;9.950;2022-11-11T09:41:21;11.77;;;3.25;;
47930;SDS011;33697;51.520;9.950;2022-11-11T09:54:16;7.22;;;3.55;;
47930;SDS011;33697;51.520;9.950;2022-11-11T09:56:48;8.00;;;2.35;;
47930;SDS011;33697;51.520;9.950;2022-11-11T09:59:23;6.57;;;2.05;;
47930;SDS011;33697;51.520;9.950;2022-11-11T10:01:55;4.47;;;1.98;;
47930;SDS011;33697;51.520;9.950;2022-11-11T10:06:54;5.90;;;1.50;;
47930;SDS011;33697;51.520;9.950;2022-11-11T10:09:30;10.02;;;2.30;;
47930;SDS011;33697;51.520;9.950;2022-11-11T10:14:28;6.45;;;1.98;;
47930;SDS011;33697;51.520;9.950;2022-11-11T10:17:02;9.25;;;2.13;;
47930;SDS011;33697;51.520;9.950;2022-11-11T10:19:47;4.63;;;1.98;;
47930;SDS011;33697;51.520;9.950;2022-11-11T10:22:20;6.43;;;2.45;;
47930;SDS011;33697;51.520;9.950;2022-11-11T10:24:56;4.85;;;2.50;;
47930;SDS011;33697;51.520;9.950;2022-11-11T10:27:26;6.18;;;1.80;;
47930;SDS011;33697;51.520;9.950;2022-11-11T10:29:53;6.93;;;1.35;;
47930;SDS011;33697;51.520;9.950;2022-11-11T10:32:26;3.17;;;1.35;;
47930;SDS011;33697;51.520;9.950;2022-11-11T10:34:53;6.25;;;1.98;;
47930;SDS011;33697;51.520;9.950;2022-11-11T10:37:22;8.55;;;1.92;;
47930;SDS011;33697;51.520;9.950;2022-11-11T10:42:31;9.75;;;1.88;;
47930;SDS011;33697;51.520;9.950;2022-11-11T10:44:58;6.38;;;1.25;;
47930;SDS011;33697;51.520;9.950;2022-11-11T10:47:33;2.85;;;1.23;;
47930;SDS011;33697;51.520;9.950;2022-11-11T10:50:10;4.50;;;0.88;;
47930;SDS011;33697;51.520;9.950;2022-11-11T10:52:40;5.38;;;1.23;;
47930;SDS011;33697;51.520;9.950;2022-11-11T10:55:19;6.43;;;1.50;;
47930;SDS011;33697;51.520;9.950;2022-11-11T10:57:52;4.95;;;1.13;;
47930;SDS011;33697;51.520;9.950;2022-11-11T11:00:19;5.00;;;0.77;;
47930;SDS011;33697;51.520;9.950;2022-11-11T11:05:25;3.67;;;0.77;;
47930;SDS011;33697;51.520;9.950;2022-11-11T11:07:54;4.03;;;0.35;;
47930;SDS011;33697;51.520;9.950;2022-11-11T11:10:23;2.67;;;0.63;;
47930;SDS011;33697;51.520;9.950;2022-11-11T11:15:21;3.63;;;0.30;;
47930;SDS011;33697;51.520;9.950;2022-11-11T11:18:04;2.47;;;0.63;;
47930;SDS011;33697;51.520;9.950;2022-11-11T11:20:31;3.83;;;0.40;;
47930;SDS011;33697;51.520;9.950;2022-11-11T11:22:58;8.50;;;0.60;;
47930;SDS011;33697;51.520;9.950;2022-11-11T11:25:27;2.45;;;0.73;;
47930;SDS011;33697;51.520;9.950;2022-11-11T11:30:58;2.92;;;0.60;;
47930;SDS011;33697;51.520;9.950;2022-11-11T11:33:24;4.38;;;0.32;;
47930;SDS011;33697;51.520;9.950;2022-11-11T11:35:50;6.15;;;0.77;;
47930;SDS011;33697;51.520;9.950;2022-11-11T11:38:17;3.67;;;1.20;;
47930;SDS011;33697;51.520;9.950;2022-11-11T11:40:45;3.65;;;0.22;;
47930;SDS011;33697;51.520;9.950;2022-11-11T11:45:54;4.57;;;0.82;;
47930;SDS011;33697;51.520;9.950;2022-11-11T11:51:17;8.55;;;1.00;;
47930;SDS011;33697;51.520;9.950;2022-11-11T12:09:19;5.68;;;1.02;;
47930;SDS011;33697;51.520;9.950;2022-11-11T12:11:58;2.17;;;0.68;;
47930;SDS011;33697;51.520;9.950;2022-11-11T12:14:29;2.38;;;0.52;;
47930;SDS011;33697;51.520;9.950;2022-11-11T12:17:01;6.22;;;1.23;;
47930;SDS011;33697;51.520;9.950;2022-11-11T12:27:26;4.95;;;0.70;;
47930;SDS011;33697;51.520;9.950;2022-11-11T12:30:10;3.03;;;0.50;;
47930;SDS011;33697;51.520;9.950;2022-11-11T12:40:19;4.93;;;0.40;;
47930;SDS011;33697;51.520;9.950;2022-11-11T12:45:23;1.85;;;0.30;;
47930;SDS011;33697;51.520;9.950;2022-11-11T12:48:12;1.50;;;0.45;;
47930;SDS011;33697;51.520;9.950;2022-11-11T12:50:47;3.13;;;0.32;;
47930;SDS011;33697;51.520;9.950;2022-11-11T12:53:22;1.30;;;0.40;;
47930;SDS011;33697;51.520;9.950;2022-11-11T13:01:15;2.40;;;0.63;;
47930;SDS011;33697;51.520;9.950;2022-11-11T13:03:47;1.23;;;0.30;;
47930;SDS011;33697;51.520;9.950;2022-11-11T13:14:26;2.05;;;0.40;;
47930;SDS011;33697;51.520;9.950;2022-11-11T13:16:57;1.40;;;0.20;;
47930;SDS011;33697;51.520;9.950;2022-11-11T13:22:24;2.40;;;1.00;;
47930;SDS011;33697;51.520;9.950;2022-11-11T13:24:51;7.80;;;1.65;;
47930;SDS011;33697;51.520;9.950;2022-11-11T13:27:25;2.40;;;0.17;;
47930;SDS011;33697;51.520;9.950;2022-11-11T13:32:21;1.15;;;0.00;;
47930;SDS011;33697;51.520;9.950;2022-11-11T13:34:49;4.30;;;0.20;;
47930;SDS011;33697;51.520;9.950;2022-11-11T13:37:26;1.75;;;0.20;;
47930;SDS011;33697;51.520;9.950;2022-11-11T13:40:02;3.33;;;0.15;;
47930;SDS011;33697;51.520;9.950;2022-11-11T13:42:32;1.67;;;0.30;;
47930;SDS011;33697;51.520;9.950;2022-11-11T13:45:00;3.40;;;0.15;;
47930;SDS011;33697;51.520;9.950;2022-11-11T13:47:32;2.80;;;0.20;;
47930;SDS011;33697;51.520;9.950;2022-11-11T13:50:02;2.70;;;0.30;;
47930;SDS011;33697;51.520;9.950;2022-11-11T13:52:33;1.25;;;0.00;;
47930;SDS011;33697;51.520;9.950;2022-11-11T13:55:01;0.28;;;0.15;;
47930;SDS011;33697;51.520;9.950;2022-11-11T13:57:30;5.15;;;0.20;;
47930;SDS011;33697;51.520;9.950;2022-11-11T14:00:03;2.65;;;0.40;;
47930;SDS011;33697;51.520;9.950;2022-11-11T14:02:33;1.25;;;0.22;;
47930;SDS011;33697;51.520;9.950;2022-11-11T14:09:56;1.10;;;0.00;;
47930;SDS011;33697;51.520;9.950;2022-11-11T14:12:36;2.88;;;0.00;;
47930;SDS011;33697;51.520;9.950;2022-11-11T14:15:03;2.88;;;0.35;;
47930;SDS011;33697;51.520;9.950;2022-11-11T14:17:33;6.03;;;1.38;;
47930;SDS011;33697;51.520;9.950;2022-11-11T14:22:53;2.00;;;0.13;;
47930;SDS011;33697;51.520;9.950;2022-11-11T14:25:21;3.00;;;0.35;;
47930;SDS011;33697;51.520;9.950;2022-11-11T14:27:49;7.32;;;0.90;;
47930;SDS011;33697;51.520;9.950;2022-11-11T14:30:29;1.33;;;0.10;;
47930;SDS011;33697;51.520;9.950;2022-11-11T14:33:04;3.38;;;0.55;;
47930;SDS011;33697;51.520;9.950;2022-11-11T14:35:43;3.65;;;0.20;;
47930;SDS011;33697;51.520;9.950;2022-11-11T14:38:21;3.15;;;0.15;;
47930;SDS011;33697;51.520;9.950;2022-11-11T14:40:48;2.10;;;0.25;;
47930;SDS011;33697;51.520;9.950;2022-11-11T14:46:01;1.63;;;0.15;;
47930;SDS011;33697;51.520;9.950;2022-11-11T14:53:58;1.42;;;0.20;;
47930;SDS011;33697;51.520;9.950;2022-11-11T14:56:24;3.42;;;0.15;;
47930;SDS011;33697;51.520;9.950;2022-11-11T14:58:52;3.00;;;0.10;;
47930;SDS011;33697;51.520;9.950;2022-11-11T15:01:19;0.90;;;0.10;;
47930;SDS011;33697;51.520;9.950;2022-11-11T15:03:47;3.17;;;0.40;;
47930;SDS011;33697;51.520;9.950;2022-11-11T15:09:02;3.75;;;0.30;;
47930;SDS011;33697;51.520;9.950;2022-11-11T15:11:43;1.92;;;0.40;;
47930;SDS011;33697;51.520;9.950;2022-11-11T15:19:47;3.40;;;0.28;;
47930;SDS011;33697;51.520;9.950;2022-11-11T15:25:06;7.10;;;0.30;;
47930;SDS011;33697;51.520;9.950;2022-11-11T15:27:55;3.60;;;1.00;;
47930;SDS011;33697;51.520;9.950;2022-11-11T15:30:35;4.18;;;1.10;;
47930;SDS011;33697;51.520;9.950;2022-11-11T15:36:00;6.53;;;2.60;;
47930;SDS011;33697;51.520;9.950;2022-11-11T15:38:36;9.50;;;3.25;;
47930;SDS011;33697;51.520;9.950;2022-11-11T15:41:02;11.57;;;3.33;;
47930;SDS011;33697;51.520;9.950;2022-11-11T15:43:29;3.85;;;1.65;;
47930;SDS011;33697;51.520;9.950;2022-11-11T15:45:57;3.83;;;1.30;;
47930;SDS011;33697;51.520;9.950;2022-11-11T15:48:28;3.78;;;2.42;;
47930;SDS011;33697;51.520;9.950;2022-11-11T15:50:55;5.68;;;3.00;;
47930;SDS011;33697;51.520;9.950;2022-11-11T15:53:25;11.85;;;5.97;;
47930;SDS011;33697;51.520;9.950;2022-11-11T15:55:54;8.60;;;4.47;;
47930;SDS011;33697;51.520;9.950;2022-11-11T16:00:51;6.18;;;3.13;;
47930;SDS011;33697;51.520;9.950;2022-11-11T16:05:50;5.47;;;2.53;;
47930;SDS011;33697;51.520;9.950;2022-11-11T16:08:17;5.07;;;2.30;;
47930;SDS011;33697;51.520;9.950;2022-11-11T16:10:55;5.50;;;2.55;;
47930;SDS011;33697;51.520;9.950;2022-11-11T16:16:05;4.70;;;2.38;;
47930;SDS011;33697;51.520;9.950;2022-11-11T16:18:38;4.85;;;2.08;;
47930;SDS011;33697;51.520;9.950;2022-11-11T16:21:07;7.68;;;2.75;;
47930;SDS011;33697;51.520;9.950;2022-11-11T16:23:35;3.97;;;2.25;;
47930;SDS011;33697;51.520;9.950;2022-11-11T16:26:02;3.10;;;1.70;;
47930;SDS011;33697;51.520;9.950;2022-11-11T16:28:32;4.40;;;2.00;;
47930;SDS011;33697;51.520;9.950;2022-11-11T16:33:46;3.08;;;1.85;;
47930;SDS011;33697;51.520;9.950;2022-11-11T16:36:13;2.58;;;1.48;;
47930;SDS011;33697;51.520;9.950;2022-11-11T16:38:39;5.18;;;1.75;;
47930;SDS011;33697;51.520;9.950;2022-11-11T16:41:25;2.30;;;1.58;;
47930;SDS011;33697;51.520;9.950;2022-11-11T16:43:54;4.47;;;2.55;;
47930;SDS011;33697;51.520;9.950;2022-11-11T16:46:37;7.40;;;2.25;;
47930;SDS011;33697;51.520;9.950;2022-11-11T16:51:51;4.72;;;3.20;;
47930;SDS011;33697;51.520;9.950;2022-11-11T16:54:19;4.93;;;3.00;;
47930;SDS011;33697;51.520;9.950;2022-11-11T16:56:48;10.93;;;4.53;;
47930;SDS011;33697;51.520;9.950;2022-11-11T16:59:18;5.03;;;3.00;;
47930;SDS011;33697;51.520;9.950;2022-11-11T17:01:47;5.70;;;3.10;;
47930;SDS011;33697;51.520;9.950;2022-11-11T17:04:13;3.30;;;2.38;;
47930;SDS011;33697;51.520;9.950;2022-11-11T17:11:57;5.30;;;3.50;;
47930;SDS011;33697;51.520;9.950;2022-11-11T17:14:24;6.53;;;2.85;;